San Francisco, CA

7:54 AM PDT on August 22, 2014 (GMT -0700)
Half Moon Bay | Change Station
CLOSE
Current Station
Airport
Location: Half Moon Bay,
Elevation: 66 ft
Nearby Weather Stations

Elev 66 ft 37.51 °N, 122.50 °W | Updated 19 minutes ago

Overcast
Overcast
59 °F
Feels Like 59 °F
N
10
Wind Variable Wind from South

Today
High -- | Low -- °F
--% Chance of Precip.
Yesterday
High -- | Low -- °F
Precip. -- in
6:31 AM 7:53 PM
Waning Crescent, 8% visible
Pressure 29.96 in
Visibility 6.0 miles
Clouds Overcast 1000 ft
Dew Point 59 °F
Humidity 100%
Rainfall 0.00 in
Snow Depth Not available.
UV 0 out of 12
Pollen 5.70 out of 12
Air Quality Not available.
Flu Activity Not available.
METAR KHAF 221435Z AUTO 18009KT 6SM BR OVC010 15/15 A2996 RMK AO2

More Conditions Fewer Conditions

Pressure 29.96 in
Visibility 6.0 miles
Clouds Overcast 1000 ft
Dew Point 59 °F
Humidity 100%
Rainfall 0.00 in
Snow Depth Not available.
UV 0 out of 12
Pollen 5.70 out of 12
Air Quality Not available.
Flu Activity Not available.
METAR KHAF 221435Z AUTO 18009KT 6SM BR OVC010 15/15 A2996 RMK AO2

More Conditions Fewer Conditions

10-Day Weather Forecast

Almanac

Astronomy

Aug. 22, 2014 Rise Set
Actual Time 6:31 AM PDT 7:53 PM PDT
Civil Twilight 6:03 AM PDT 8:20 PM PDT
Nautical Twilight 5:30 AM PDT 8:53 PM PDT
Astronomical Twilight 4:56 AM PDT 9:27 PM PDT
Moon 4:00 AM PDT 6:04 PM PDT
Length of Visible Light 14h 16m
Length of Day
13h 21m
Tomorrow will be 2m 14s shorter.
Waning Crescent, 8% of the Moon is Illuminated
Today
Waning Crescent
Aug 25
New
Sep 2
First Quarter
Sep 8
Full
Sep 15
Last Quarter

Today's Extremes

State Highs State Lows

Community

WunderPhotos

Upload Photos

1,746,181 photos uploaded!

WunderBlogs® & News

Nearby

Air Quality

  Air Quality AQ Index Pollutant
Friday Good
PM2.5
Saturday Moderate
PM2.5
Sunday Moderate
PM2.5
Monday Moderate
PM2.5
Tuesday Moderate
PM2.5

Snow Depth

Station Depth Elevation
Echo Peak 2 in 7800 ft
Forestdale Creek 0 in 8029 ft
Fallen Leaf 0 in 6300 ft
Squaw Valley 0 in 8200 ft
Hagan's Meadow 0 in 8000 ft

Earthquake Activity

City Distance Mag. Time & Date
Berkeley, California 11 miles 2.6 7:41 PM PDT
2014-08-16
King City, California 133 miles 2.7 10:26 PM PDT
2014-08-15
Minimum magnitude displayed is 2.5.

Coastal Water Temperatures

Place Temperature
No Stations Reporting

Nearby Weather Stations